Startpagina
METAR-TAF:

METAR-TAF

Vliegvelden :

Luchthaven Tartu

Tartu, Estland

breedte: 58-18N, lengte: 026-44E, hoogte: 59 m

Actueel weer

Dit bericht is 26 minuten geleden gemaakt, om 11:50 UTC
Wind 11 kt uit het zuidoosten
Temperatuur -2°C
Vochtigheid 69%
Druk 1031 hPa
Zicht 10 km of meer
geen wolken onder 1500 m en geen cumulonimbus

METAR: EETU 221150Z 14011KT CAVOK M02/M07 Q1031

Tijdstip: 14:16 (12:16 UTC)

Verwachting

Dit bericht is 15 uur en het 16 minuten geleden gemaakt, om 21:00 UTC
Verwachting geldig van 21 om 22 UTC tot 22 om 04 UTC
Wind 10 kt uit het zuidzuidoosten
Zicht 10 km of meer
Gebroken wolken op 2500 ft

TAF: EETU 212100Z 2122/2204 15010KT 9999 BKN025

Waarnemingen en weersverwachtingen van meer dan 4000 vliegvelden (METAR en TAF).

De beschikbare stations zijn de gele en rode punten op de kaart.

Ga met uw muis naar het station om de naam te zien.

Klik dan om waarnemingen en weersverwachtingen te zien.

kaart wijzigen: klik op de groene knoppen met een zwart kruis om in te zoomen, op de groene knop met een streepje om uit te zoomen of op de groene pijlen voor aangrenzende kaarten.


METAR-TAF: